Parc Hill Brothers, Puerto Rico
Current Conditions -  °F | °C
As of 11:56 PM on Saturday 24 Jan 2015 (Local Time) from TJSJ Reporting Station
Clear Clear  
Wind Chill: 76°   Ceiling: Unl
Heat Index: 76°   Visibility: 10mi
Dew Point: 72°   Wind: 0mph
Humidity: 87%   Direction: NA
Pressure: 30.04"   Gusts: NA
Location:  18.4051°N, 66.0126°W
Report Text: TJSJ 250356Z 00000KT 10SM CLR 24/22 A3004 RMK AO2 SLP170 T02440222 402940233
Loading
Personal Weather Stations






























Interactive Weather Map New forecast layout! Learn more

10-Day Weather Forecast

Advertisements
Track Severe Weather on mobile